TNO1122 KMSY-KTLH
Flight info
| Callsign | TNO1122 |
|---|---|
| Flight time | 2h 0m |
| Altitude | 7500 |
| Route | DOGMA |
| Aircraft | M20T/L-SDFGR/C |
Departure
| Time | 2026-05-07 14:23 |
|---|---|
| Airport | Louis Armstrong New Orleans International Airport (KMSY) |
Arrival
| Time | 2026-05-07 16:24 |
|---|---|
| Airport | Tallahassee International Airport (KTLH) |
| Time | Latitude | Longitude | Altitude | Speed | Heading |
|---|---|---|---|---|---|
| 2026-05-07 14:16 | 29.98715 | -90.25306 | 8 ft | 0 kts | 201° |
| 2026-05-07 14:18 | 29.98714 | -90.25306 | 8 ft | 0 kts | 201° |
| 2026-05-07 14:20 | 29.98723 | -90.25305 | 8 ft | 2 kts | 173° |
| 2026-05-07 14:21 | 29.98738 | -90.25315 | 8 ft | 0 kts | 129° |
| 2026-05-07 14:21 | 29.98730 | -90.25300 | 8 ft | 5 kts | 122° |
| 2026-05-07 14:21 | 29.98694 | -90.25242 | 8 ft | 10 kts | 147° |
| 2026-05-07 14:21 | 29.98639 | -90.25239 | 8 ft | 8 kts | 184° |
| 2026-05-07 14:22 | 29.98583 | -90.25221 | 8 ft | 7 kts | 126° |
| 2026-05-07 14:22 | 29.98564 | -90.25157 | 8 ft | 11 kts | 106° |
| 2026-05-07 14:22 | 29.98586 | -90.25097 | 8 ft | 16 kts | 15° |
| 2026-05-07 14:22 | 29.98900 | -90.25000 | 8 ft | 77 kts | 15° |
| 2026-05-07 14:23 | 29.99540 | -90.24797 | 124 ft | 109 kts | 16° |
| 2026-05-07 14:23 | 30.00147 | -90.24185 | 331 ft | 129 kts | 65° |
| 2026-05-07 14:23 | 30.00273 | -90.23122 | 540 ft | 140 kts | 86° |
| 2026-05-07 14:23 | 30.00335 | -90.21975 | 726 ft | 146 kts | 83° |
| 2026-05-07 14:24 | 30.00461 | -90.20798 | 908 ft | 150 kts | 80° |
| 2026-05-07 14:24 | 30.00637 | -90.19599 | 1089 ft | 152 kts | 78° |
| 2026-05-07 14:24 | 30.00842 | -90.18390 | 1265 ft | 155 kts | 77° |
| 2026-05-07 14:24 | 30.01063 | -90.17172 | 1440 ft | 156 kts | 76° |
| 2026-05-07 14:25 | 30.01292 | -90.15946 | 1619 ft | 157 kts | 74° |
| 2026-05-07 14:25 | 30.01532 | -90.14697 | 1790 ft | 161 kts | 75° |
| 2026-05-07 14:25 | 30.01782 | -90.13420 | 1975 ft | 164 kts | 75° |
| 2026-05-07 14:25 | 30.02035 | -90.12121 | 2157 ft | 167 kts | 75° |
| 2026-05-07 14:26 | 30.02292 | -90.10804 | 2340 ft | 169 kts | 75° |
| 2026-05-07 14:26 | 30.02553 | -90.09469 | 2515 ft | 171 kts | 75° |
| 2026-05-07 14:26 | 30.02817 | -90.08119 | 2687 ft | 173 kts | 75° |
| 2026-05-07 14:26 | 30.03081 | -90.06772 | 2862 ft | 175 kts | 76° |
| 2026-05-07 14:27 | 30.03350 | -90.05396 | 3038 ft | 176 kts | 76° |
| 2026-05-07 14:27 | 30.03621 | -90.04005 | 3208 ft | 178 kts | 76° |
| 2026-05-07 14:27 | 30.03894 | -90.02607 | 3384 ft | 179 kts | 76° |
| 2026-05-07 14:27 | 30.04168 | -90.01204 | 3569 ft | 179 kts | 76° |
| 2026-05-07 14:28 | 30.04441 | -89.99803 | 3745 ft | 180 kts | 76° |
| 2026-05-07 14:28 | 30.04717 | -89.98393 | 3923 ft | 180 kts | 77° |
| 2026-05-07 14:28 | 30.04992 | -89.96980 | 4103 ft | 181 kts | 77° |
| 2026-05-07 14:28 | 30.05269 | -89.95559 | 4279 ft | 182 kts | 77° |
| 2026-05-07 14:29 | 30.05547 | -89.94134 | 4453 ft | 183 kts | 77° |
| 2026-05-07 14:29 | 30.05826 | -89.92701 | 4631 ft | 182 kts | 77° |
| 2026-05-07 14:29 | 30.06101 | -89.91292 | 4799 ft | 178 kts | 77° |
| 2026-05-07 14:29 | 30.06370 | -89.89914 | 4965 ft | 175 kts | 77° |
| 2026-05-07 14:30 | 30.06637 | -89.88554 | 5132 ft | 173 kts | 78° |
| 2026-05-07 14:30 | 30.06900 | -89.87205 | 5308 ft | 172 kts | 78° |
| 2026-05-07 14:30 | 30.07163 | -89.85864 | 5483 ft | 171 kts | 78° |
| 2026-05-07 14:30 | 30.07422 | -89.84538 | 5644 ft | 171 kts | 79° |
| 2026-05-07 14:31 | 30.07684 | -89.83194 | 5811 ft | 170 kts | 79° |
| 2026-05-07 14:31 | 30.07943 | -89.81862 | 5989 ft | 170 kts | 79° |
| 2026-05-07 14:31 | 30.08199 | -89.80546 | 6169 ft | 170 kts | 79° |
| 2026-05-07 14:31 | 30.08458 | -89.79214 | 6349 ft | 169 kts | 79° |
| 2026-05-07 14:32 | 30.08717 | -89.77876 | 6510 ft | 171 kts | 79° |
| 2026-05-07 14:32 | 30.08974 | -89.76550 | 6681 ft | 171 kts | 79° |
| 2026-05-07 14:32 | 30.09234 | -89.75209 | 6856 ft | 171 kts | 79° |
| 2026-05-07 14:32 | 30.09494 | -89.73865 | 7032 ft | 171 kts | 79° |
| 2026-05-07 14:33 | 30.09751 | -89.72533 | 7197 ft | 171 kts | 79° |
| 2026-05-07 14:33 | 30.10014 | -89.71173 | 7355 ft | 173 kts | 79° |
| 2026-05-07 14:33 | 30.10276 | -89.69811 | 7454 ft | 178 kts | 79° |
| 2026-05-07 14:33 | 30.10550 | -89.68378 | 7485 ft | 185 kts | 79° |
| 2026-05-07 14:34 | 30.10827 | -89.66923 | 7498 ft | 189 kts | 79° |
| 2026-05-07 14:34 | 30.11114 | -89.65408 | 7499 ft | 193 kts | 79° |
| 2026-05-07 14:34 | 30.11402 | -89.63891 | 7499 ft | 196 kts | 79° |
| 2026-05-07 14:34 | 30.11693 | -89.62361 | 7499 ft | 197 kts | 79° |
| 2026-05-07 14:35 | 30.11989 | -89.60807 | 7497 ft | 199 kts | 79° |
| 2026-05-07 14:35 | 30.12288 | -89.59240 | 7496 ft | 199 kts | 79° |
| 2026-05-07 14:35 | 30.12584 | -89.57693 | 7496 ft | 199 kts | 79° |
| 2026-05-07 14:35 | 30.12884 | -89.56121 | 7495 ft | 199 kts | 79° |
| 2026-05-07 14:36 | 30.13181 | -89.54573 | 7500 ft | 199 kts | 78° |
| 2026-05-07 14:36 | 30.13480 | -89.53010 | 7494 ft | 199 kts | 79° |
| 2026-05-07 14:36 | 30.13781 | -89.51438 | 7495 ft | 199 kts | 79° |
| 2026-05-07 14:36 | 30.14078 | -89.49888 | 7493 ft | 199 kts | 79° |
| 2026-05-07 14:37 | 30.14379 | -89.48315 | 7487 ft | 199 kts | 79° |
| 2026-05-07 14:37 | 30.14974 | -89.45203 | 7546 ft | 196 kts | 78° |
| 2026-05-07 14:37 | 30.15269 | -89.43659 | 7493 ft | 201 kts | 78° |
| 2026-05-07 14:38 | 30.15571 | -89.42085 | 7419 ft | 197 kts | 78° |
| 2026-05-07 14:38 | 30.15848 | -89.40659 | 7562 ft | 177 kts | 78° |
| 2026-05-07 14:38 | 30.16130 | -89.39218 | 7492 ft | 181 kts | 78° |
| 2026-05-07 14:38 | 30.16403 | -89.37815 | 7478 ft | 179 kts | 78° |
| 2026-05-07 14:39 | 30.16670 | -89.36453 | 7511 ft | 171 kts | 78° |
| 2026-05-07 14:39 | 30.16933 | -89.35105 | 7524 ft | 168 kts | 79° |
| 2026-05-07 14:39 | 30.17192 | -89.33776 | 7511 ft | 177 kts | 78° |
| 2026-05-07 14:39 | 30.17459 | -89.32384 | 7529 ft | 178 kts | 79° |
| 2026-05-07 14:40 | 30.17720 | -89.31027 | 7580 ft | 170 kts | 79° |
| 2026-05-07 14:40 | 30.17985 | -89.29647 | 7574 ft | 180 kts | 78° |
| 2026-05-07 14:40 | 30.18254 | -89.28217 | 7522 ft | 184 kts | 79° |
| 2026-05-07 14:40 | 30.18524 | -89.26751 | 7479 ft | 183 kts | 79° |
| 2026-05-07 14:41 | 30.18786 | -89.25357 | 7519 ft | 179 kts | 79° |
| 2026-05-07 14:41 | 30.19059 | -89.23924 | 7492 ft | 183 kts | 79° |
| 2026-05-07 14:41 | 30.19335 | -89.22482 | 7489 ft | 183 kts | 78° |
| 2026-05-07 14:41 | 30.19613 | -89.21040 | 7394 ft | 195 kts | 78° |
| 2026-05-07 14:42 | 30.19923 | -89.19385 | 7520 ft | 207 kts | 78° |
| 2026-05-07 14:42 | 30.20209 | -89.17867 | 7581 ft | 196 kts | 78° |
| 2026-05-07 14:42 | 30.20500 | -89.16315 | 7512 ft | 196 kts | 78° |
| 2026-05-07 14:42 | 30.20789 | -89.14802 | 7497 ft | 194 kts | 78° |
| 2026-05-07 14:43 | 30.21083 | -89.13279 | 7487 ft | 193 kts | 78° |
| 2026-05-07 14:43 | 30.21376 | -89.11777 | 7507 ft | 189 kts | 77° |
| 2026-05-07 14:43 | 30.21665 | -89.10307 | 7494 ft | 189 kts | 78° |
| 2026-05-07 14:43 | 30.21964 | -89.08826 | 7506 ft | 187 kts | 77° |
| 2026-05-07 14:44 | 30.22259 | -89.07372 | 7500 ft | 187 kts | 77° |
| 2026-05-07 14:44 | 30.22511 | -89.05894 | 7497 ft | 186 kts | 84° |
| 2026-05-07 14:44 | 30.22633 | -89.04419 | 7503 ft | 185 kts | 88° |
| 2026-05-07 14:44 | 30.22713 | -89.02926 | 7511 ft | 184 kts | 90° |
| 2026-05-07 14:45 | 30.22782 | -89.01463 | 7497 ft | 185 kts | 89° |
| 2026-05-07 14:45 | 30.22853 | -88.99964 | 7494 ft | 184 kts | 89° |
| 2026-05-07 14:45 | 30.22926 | -88.98492 | 7486 ft | 184 kts | 89° |
| 2026-05-07 14:45 | 30.22975 | -88.97502 | 7499 ft | 184 kts | 89° |
| 2026-05-07 14:46 | 30.23075 | -88.95535 | 7474 ft | 185 kts | 89° |
| 2026-05-07 14:46 | 30.23125 | -88.94548 | 7488 ft | 184 kts | 88° |
| 2026-05-07 14:46 | 30.23200 | -88.93060 | 7496 ft | 184 kts | 89° |
| 2026-05-07 14:46 | 30.23275 | -88.91594 | 7495 ft | 184 kts | 89° |
| 2026-05-07 14:47 | 30.23352 | -88.90098 | 7487 ft | 185 kts | 89° |
| 2026-05-07 14:47 | 30.23427 | -88.88625 | 7475 ft | 185 kts | 89° |
| 2026-05-07 14:47 | 30.23501 | -88.87151 | 7499 ft | 184 kts | 88° |
| 2026-05-07 14:47 | 30.23578 | -88.85671 | 7501 ft | 185 kts | 89° |
| 2026-05-07 14:48 | 30.23653 | -88.84188 | 7502 ft | 186 kts | 89° |
| 2026-05-07 14:48 | 30.23729 | -88.82684 | 7493 ft | 187 kts | 89° |
| 2026-05-07 14:48 | 30.23804 | -88.81183 | 7510 ft | 187 kts | 88° |
| 2026-05-07 14:48 | 30.23879 | -88.79685 | 7483 ft | 189 kts | 89° |
| 2026-05-07 14:49 | 30.23956 | -88.78155 | 7473 ft | 188 kts | 89° |
| 2026-05-07 14:49 | 30.24029 | -88.76668 | 7489 ft | 186 kts | 89° |
| 2026-05-07 14:49 | 30.24104 | -88.75166 | 7494 ft | 186 kts | 89° |
| 2026-05-07 14:49 | 30.24178 | -88.73665 | 7499 ft | 185 kts | 88° |
| 2026-05-07 14:50 | 30.24255 | -88.72181 | 7490 ft | 187 kts | 89° |
| 2026-05-07 14:50 | 30.24331 | -88.70697 | 7499 ft | 185 kts | 89° |
| 2026-05-07 14:50 | 30.24406 | -88.69199 | 7491 ft | 186 kts | 89° |
| 2026-05-07 14:50 | 30.24481 | -88.67711 | 7480 ft | 187 kts | 89° |
| 2026-05-07 14:51 | 30.24554 | -88.66209 | 7515 ft | 185 kts | 88° |
| 2026-05-07 14:51 | 30.24628 | -88.64731 | 7485 ft | 187 kts | 89° |
| 2026-05-07 14:51 | 30.24701 | -88.63237 | 7523 ft | 185 kts | 90° |
| 2026-05-07 14:51 | 30.24774 | -88.61761 | 7485 ft | 187 kts | 89° |
| 2026-05-07 14:52 | 30.24848 | -88.60258 | 7506 ft | 186 kts | 89° |
| 2026-05-07 14:52 | 30.24919 | -88.58760 | 7502 ft | 187 kts | 89° |
| 2026-05-07 14:52 | 30.24989 | -88.57267 | 7495 ft | 186 kts | 89° |
| 2026-05-07 14:52 | 30.25061 | -88.55778 | 7489 ft | 187 kts | 89° |
| 2026-05-07 14:53 | 30.25133 | -88.54269 | 7487 ft | 187 kts | 89° |
| 2026-05-07 14:53 | 30.25206 | -88.52765 | 7488 ft | 187 kts | 89° |
| 2026-05-07 14:53 | 30.25276 | -88.51271 | 7490 ft | 187 kts | 89° |
| 2026-05-07 14:53 | 30.25348 | -88.49773 | 7475 ft | 187 kts | 89° |
| 2026-05-07 14:54 | 30.25423 | -88.48272 | 7517 ft | 185 kts | 89° |
| 2026-05-07 14:54 | 30.25498 | -88.46767 | 7490 ft | 187 kts | 89° |
| 2026-05-07 14:54 | 30.25569 | -88.45285 | 7506 ft | 185 kts | 89° |
| 2026-05-07 14:54 | 30.25642 | -88.43793 | 7512 ft | 185 kts | 89° |
| 2026-05-07 14:55 | 30.25713 | -88.42303 | 7514 ft | 185 kts | 89° |
| 2026-05-07 14:55 | 30.25784 | -88.40834 | 7515 ft | 185 kts | 90° |
| 2026-05-07 14:55 | 30.25855 | -88.39339 | 7515 ft | 185 kts | 90° |
| 2026-05-07 14:55 | 30.25924 | -88.37863 | 7515 ft | 185 kts | 90° |
| 2026-05-07 14:56 | 30.25995 | -88.36374 | 7515 ft | 185 kts | 90° |
| 2026-05-07 14:56 | 30.26065 | -88.34889 | 7516 ft | 185 kts | 90° |
| 2026-05-07 14:56 | 30.26135 | -88.33403 | 7517 ft | 185 kts | 90° |
| 2026-05-07 14:56 | 30.26205 | -88.31924 | 7517 ft | 185 kts | 90° |
| 2026-05-07 14:57 | 30.26274 | -88.30427 | 7517 ft | 185 kts | 90° |
| 2026-05-07 14:57 | 30.26343 | -88.28954 | 7513 ft | 185 kts | 90° |
| 2026-05-07 14:57 | 30.26412 | -88.27445 | 7504 ft | 186 kts | 90° |
| 2026-05-07 14:57 | 30.26480 | -88.25961 | 7503 ft | 186 kts | 90° |
| 2026-05-07 14:58 | 30.26548 | -88.24482 | 7502 ft | 185 kts | 90° |
| 2026-05-07 14:58 | 30.26617 | -88.22990 | 7501 ft | 184 kts | 90° |
| 2026-05-07 14:58 | 30.26687 | -88.21511 | 7513 ft | 183 kts | 90° |
| 2026-05-07 14:58 | 30.26755 | -88.20054 | 7517 ft | 183 kts | 90° |
| 2026-05-07 14:59 | 30.26825 | -88.18572 | 7511 ft | 184 kts | 90° |
| 2026-05-07 14:59 | 30.26892 | -88.17102 | 7505 ft | 184 kts | 90° |
| 2026-05-07 14:59 | 30.26959 | -88.15610 | 7503 ft | 185 kts | 90° |
| 2026-05-07 14:59 | 30.27025 | -88.14133 | 7502 ft | 185 kts | 90° |
| 2026-05-07 15:00 | 30.27092 | -88.12639 | 7500 ft | 185 kts | 90° |
| 2026-05-07 15:00 | 30.27159 | -88.11158 | 7499 ft | 185 kts | 90° |
| 2026-05-07 15:00 | 30.27225 | -88.09683 | 7499 ft | 185 kts | 90° |
| 2026-05-07 15:00 | 30.27292 | -88.08195 | 7498 ft | 185 kts | 90° |
| 2026-05-07 15:01 | 30.27358 | -88.06709 | 7498 ft | 185 kts | 90° |
| 2026-05-07 15:01 | 30.27425 | -88.05217 | 7498 ft | 185 kts | 90° |
| 2026-05-07 15:01 | 30.27491 | -88.03747 | 7499 ft | 185 kts | 90° |
| 2026-05-07 15:01 | 30.27557 | -88.02254 | 7499 ft | 185 kts | 90° |
| 2026-05-07 15:02 | 30.27624 | -88.00763 | 7498 ft | 185 kts | 90° |
| 2026-05-07 15:02 | 30.27690 | -87.99311 | 7485 ft | 179 kts | 90° |
| 2026-05-07 15:02 | 30.27760 | -87.97906 | 7498 ft | 171 kts | 90° |
| 2026-05-07 15:02 | 30.27833 | -87.96559 | 7570 ft | 165 kts | 89° |
| 2026-05-07 15:03 | 30.27910 | -87.95242 | 7549 ft | 166 kts | 90° |
| 2026-05-07 15:03 | 30.27982 | -87.93910 | 7648 ft | 169 kts | 90° |
| 2026-05-07 15:03 | 30.28050 | -87.92560 | 7604 ft | 166 kts | 90° |
| 2026-05-07 15:03 | 30.28112 | -87.91229 | 7567 ft | 166 kts | 90° |
| 2026-05-07 15:04 | 30.28172 | -87.89917 | 7526 ft | 164 kts | 90° |
| 2026-05-07 15:04 | 30.28234 | -87.88611 | 7622 ft | 160 kts | 90° |
| 2026-05-07 15:04 | 30.28298 | -87.87353 | 7715 ft | 161 kts | 90° |
| 2026-05-07 15:04 | 30.28359 | -87.86020 | 7587 ft | 165 kts | 91° |
| 2026-05-07 15:05 | 30.28415 | -87.84693 | 7541 ft | 164 kts | 91° |
| 2026-05-07 15:05 | 30.28468 | -87.83381 | 7529 ft | 160 kts | 90° |
| 2026-05-07 15:05 | 30.28528 | -87.82092 | 7614 ft | 162 kts | 90° |
| 2026-05-07 15:05 | 30.28586 | -87.80746 | 7500 ft | 172 kts | 90° |
| 2026-05-07 15:06 | 30.28636 | -87.79346 | 7580 ft | 175 kts | 91° |
| 2026-05-07 15:06 | 30.28688 | -87.77949 | 7563 ft | 173 kts | 91° |
| 2026-05-07 15:06 | 30.28740 | -87.76545 | 7528 ft | 179 kts | 91° |
| 2026-05-07 15:06 | 30.28790 | -87.75096 | 7538 ft | 175 kts | 91° |
| 2026-05-07 15:07 | 30.28846 | -87.73753 | 7589 ft | 173 kts | 90° |
| 2026-05-07 15:07 | 30.28899 | -87.72012 | 6178 ft | 270 kts | 91° |
| 2026-05-07 15:07 | 30.28911 | -87.69948 | 6891 ft | 238 kts | 92° |
| 2026-05-07 15:07 | 30.28927 | -87.67923 | 5919 ft | 277 kts | 92° |
| 2026-05-07 15:08 | 30.28944 | -87.65603 | 5774 ft | 272 kts | 91° |
| 2026-05-07 15:08 | 30.28984 | -87.63682 | 6562 ft | 206 kts | 90° |
| 2026-05-07 15:08 | 30.29067 | -87.62166 | 6356 ft | 174 kts | 87° |
| 2026-05-07 15:08 | 30.29198 | -87.60909 | 6034 ft | 145 kts | 83° |
| 2026-05-07 15:09 | 30.29346 | -87.59730 | 6191 ft | 135 kts | 85° |
| 2026-05-07 15:09 | 30.29477 | -87.58522 | 6254 ft | 167 kts | 88° |
| 2026-05-07 15:09 | 30.29556 | -87.57454 | 7040 ft | 119 kts | 83° |
| 2026-05-07 15:09 | 30.29667 | -87.56457 | 7263 ft | 131 kts | 84° |
| 2026-05-07 15:10 | 30.29746 | -87.55371 | 7425 ft | 142 kts | 86° |
| 2026-05-07 15:10 | 30.29795 | -87.54187 | 7488 ft | 153 kts | 88° |
| 2026-05-07 15:10 | 30.29831 | -87.52922 | 7492 ft | 159 kts | 88° |
| 2026-05-07 15:10 | 30.29864 | -87.51629 | 7489 ft | 161 kts | 88° |
| 2026-05-07 15:11 | 30.29901 | -87.50346 | 7488 ft | 161 kts | 88° |
| 2026-05-07 15:11 | 30.29943 | -87.49054 | 7486 ft | 158 kts | 88° |
| 2026-05-07 15:11 | 30.29990 | -87.47800 | 7485 ft | 156 kts | 87° |
| 2026-05-07 15:11 | 30.30042 | -87.46548 | 7485 ft | 153 kts | 87° |
| 2026-05-07 15:12 | 30.30097 | -87.45321 | 7485 ft | 151 kts | 87° |
| 2026-05-07 15:12 | 30.30153 | -87.44132 | 7485 ft | 149 kts | 87° |
| 2026-05-07 15:12 | 30.30209 | -87.42936 | 7486 ft | 147 kts | 87° |
| 2026-05-07 15:12 | 30.30264 | -87.41760 | 7486 ft | 147 kts | 87° |
| 2026-05-07 15:13 | 30.30317 | -87.40579 | 7487 ft | 147 kts | 87° |
| 2026-05-07 15:13 | 30.30367 | -87.39409 | 7487 ft | 146 kts | 87° |
| 2026-05-07 15:13 | 30.30417 | -87.38225 | 7486 ft | 146 kts | 87° |
| 2026-05-07 15:13 | 30.30466 | -87.37069 | 7487 ft | 145 kts | 87° |
| 2026-05-07 15:14 | 30.30515 | -87.35898 | 7487 ft | 144 kts | 87° |
| 2026-05-07 15:14 | 30.30563 | -87.34750 | 7487 ft | 144 kts | 87° |
| 2026-05-07 15:14 | 30.30611 | -87.33586 | 7487 ft | 144 kts | 87° |
| 2026-05-07 15:14 | 30.30658 | -87.32432 | 7487 ft | 144 kts | 87° |
| 2026-05-07 15:15 | 30.30705 | -87.31260 | 7487 ft | 145 kts | 87° |
| 2026-05-07 15:15 | 30.30750 | -87.30108 | 7487 ft | 145 kts | 87° |
| 2026-05-07 15:15 | 30.30796 | -87.28937 | 7487 ft | 145 kts | 87° |
| 2026-05-07 15:15 | 30.30841 | -87.27781 | 7487 ft | 145 kts | 87° |
| 2026-05-07 15:16 | 30.30886 | -87.26611 | 7487 ft | 145 kts | 87° |
| 2026-05-07 15:16 | 30.30931 | -87.25458 | 7487 ft | 145 kts | 87° |
| 2026-05-07 15:16 | 30.30976 | -87.24289 | 7487 ft | 145 kts | 87° |
| 2026-05-07 15:16 | 30.31021 | -87.23132 | 7487 ft | 145 kts | 87° |
| 2026-05-07 15:17 | 30.31066 | -87.21969 | 7487 ft | 145 kts | 87° |
| 2026-05-07 15:17 | 30.31111 | -87.20798 | 7487 ft | 145 kts | 87° |
| 2026-05-07 15:17 | 30.31156 | -87.19644 | 7487 ft | 144 kts | 87° |
| 2026-05-07 15:17 | 30.31202 | -87.18475 | 7487 ft | 144 kts | 87° |
| 2026-05-07 15:18 | 30.31247 | -87.17326 | 7487 ft | 144 kts | 87° |
| 2026-05-07 15:18 | 30.31293 | -87.16164 | 7487 ft | 144 kts | 87° |
| 2026-05-07 15:18 | 30.31337 | -87.15022 | 7487 ft | 143 kts | 87° |
| 2026-05-07 15:18 | 30.31382 | -87.13866 | 7487 ft | 143 kts | 87° |
| 2026-05-07 15:19 | 30.31427 | -87.12708 | 7487 ft | 143 kts | 87° |
| 2026-05-07 15:19 | 30.31471 | -87.11564 | 7487 ft | 143 kts | 87° |
| 2026-05-07 15:19 | 30.31515 | -87.10407 | 7487 ft | 143 kts | 87° |
| 2026-05-07 15:19 | 30.31558 | -87.09262 | 7487 ft | 144 kts | 87° |
| 2026-05-07 15:20 | 30.31602 | -87.08099 | 7488 ft | 144 kts | 88° |
| 2026-05-07 15:20 | 30.31644 | -87.06948 | 7487 ft | 144 kts | 88° |
| 2026-05-07 15:20 | 30.31687 | -87.05777 | 7487 ft | 145 kts | 88° |
| 2026-05-07 15:20 | 30.31729 | -87.04622 | 7487 ft | 145 kts | 88° |
| 2026-05-07 15:21 | 30.31771 | -87.03446 | 7488 ft | 146 kts | 88° |
| 2026-05-07 15:21 | 30.31813 | -87.02284 | 7488 ft | 146 kts | 88° |
| 2026-05-07 15:21 | 30.31855 | -87.01102 | 7487 ft | 146 kts | 88° |
| 2026-05-07 15:21 | 30.31898 | -86.99927 | 7487 ft | 146 kts | 88° |
| 2026-05-07 15:22 | 30.31941 | -86.98761 | 7487 ft | 145 kts | 88° |
| 2026-05-07 15:22 | 30.31984 | -86.97601 | 7487 ft | 145 kts | 87° |
| 2026-05-07 15:22 | 30.32028 | -86.96427 | 7487 ft | 145 kts | 87° |
| 2026-05-07 15:22 | 30.32071 | -86.95269 | 7487 ft | 145 kts | 88° |
| 2026-05-07 15:23 | 30.32114 | -86.94098 | 7487 ft | 145 kts | 88° |
| 2026-05-07 15:23 | 30.32157 | -86.92925 | 7487 ft | 145 kts | 88° |
| 2026-05-07 15:23 | 30.32200 | -86.91764 | 7487 ft | 145 kts | 88° |
| 2026-05-07 15:23 | 30.32242 | -86.90609 | 7487 ft | 145 kts | 88° |
| 2026-05-07 15:24 | 30.32285 | -86.89437 | 7487 ft | 145 kts | 88° |
| 2026-05-07 15:24 | 30.32327 | -86.88263 | 7488 ft | 145 kts | 88° |
| 2026-05-07 15:24 | 30.32369 | -86.87103 | 7487 ft | 145 kts | 88° |
| 2026-05-07 15:24 | 30.32410 | -86.85936 | 7487 ft | 145 kts | 88° |
| 2026-05-07 15:25 | 30.32452 | -86.84756 | 7487 ft | 145 kts | 88° |
| 2026-05-07 15:25 | 30.32493 | -86.83600 | 7487 ft | 145 kts | 88° |
| 2026-05-07 15:25 | 30.32536 | -86.82429 | 7487 ft | 145 kts | 88° |
| 2026-05-07 15:25 | 30.32578 | -86.81273 | 7487 ft | 145 kts | 88° |
| 2026-05-07 15:26 | 30.32620 | -86.80100 | 7487 ft | 145 kts | 88° |
| 2026-05-07 15:26 | 30.32662 | -86.78926 | 7488 ft | 145 kts | 88° |
| 2026-05-07 15:26 | 30.32702 | -86.77765 | 7488 ft | 146 kts | 88° |
| 2026-05-07 15:26 | 30.32742 | -86.76599 | 7487 ft | 146 kts | 88° |
| 2026-05-07 15:27 | 30.32783 | -86.75417 | 7487 ft | 145 kts | 88° |
| 2026-05-07 15:27 | 30.32824 | -86.74258 | 7487 ft | 145 kts | 88° |
| 2026-05-07 15:27 | 30.32866 | -86.73088 | 7487 ft | 145 kts | 88° |
| 2026-05-07 15:27 | 30.32908 | -86.71927 | 7487 ft | 145 kts | 88° |
| 2026-05-07 15:28 | 30.32949 | -86.70762 | 7487 ft | 145 kts | 88° |
| 2026-05-07 15:28 | 30.32990 | -86.69603 | 7487 ft | 145 kts | 88° |
| 2026-05-07 15:28 | 30.33031 | -86.68433 | 7487 ft | 145 kts | 88° |
| 2026-05-07 15:28 | 30.33071 | -86.67276 | 7487 ft | 145 kts | 88° |
| 2026-05-07 15:29 | 30.33111 | -86.66104 | 7487 ft | 145 kts | 88° |
| 2026-05-07 15:29 | 30.33151 | -86.64944 | 7487 ft | 145 kts | 88° |
| 2026-05-07 15:29 | 30.33191 | -86.63769 | 7487 ft | 145 kts | 88° |
| 2026-05-07 15:29 | 30.33230 | -86.62603 | 7487 ft | 145 kts | 88° |
| 2026-05-07 15:30 | 30.33269 | -86.61443 | 7487 ft | 145 kts | 88° |
| 2026-05-07 15:30 | 30.33309 | -86.60272 | 7487 ft | 145 kts | 88° |
| 2026-05-07 15:30 | 30.33349 | -86.59101 | 7487 ft | 145 kts | 88° |
| 2026-05-07 15:30 | 30.33389 | -86.57946 | 7487 ft | 145 kts | 88° |
| 2026-05-07 15:31 | 30.33429 | -86.56778 | 7487 ft | 144 kts | 88° |
| 2026-05-07 15:31 | 30.33469 | -86.55628 | 7487 ft | 144 kts | 88° |
| 2026-05-07 15:31 | 30.33509 | -86.54464 | 7487 ft | 144 kts | 88° |
| 2026-05-07 15:31 | 30.33549 | -86.53318 | 7487 ft | 144 kts | 88° |
| 2026-05-07 15:32 | 30.33589 | -86.52153 | 7487 ft | 144 kts | 88° |
| 2026-05-07 15:32 | 30.33628 | -86.51002 | 7487 ft | 144 kts | 88° |
| 2026-05-07 15:32 | 30.33667 | -86.49841 | 7487 ft | 144 kts | 88° |
| 2026-05-07 15:32 | 30.33705 | -86.48698 | 7487 ft | 144 kts | 88° |
| 2026-05-07 15:33 | 30.33744 | -86.47538 | 7487 ft | 144 kts | 88° |
| 2026-05-07 15:33 | 30.33782 | -86.46375 | 7488 ft | 144 kts | 88° |
| 2026-05-07 15:33 | 30.33819 | -86.45221 | 7487 ft | 144 kts | 88° |
| 2026-05-07 15:33 | 30.33856 | -86.44065 | 7487 ft | 145 kts | 88° |
| 2026-05-07 15:34 | 30.33893 | -86.42891 | 7487 ft | 145 kts | 88° |
| 2026-05-07 15:34 | 30.33930 | -86.41735 | 7487 ft | 145 kts | 88° |
| 2026-05-07 15:34 | 30.33968 | -86.40566 | 7487 ft | 144 kts | 88° |
| 2026-05-07 15:34 | 30.34006 | -86.39400 | 7487 ft | 144 kts | 88° |
| 2026-05-07 15:35 | 30.34044 | -86.38252 | 7487 ft | 144 kts | 88° |
| 2026-05-07 15:35 | 30.34083 | -86.37091 | 7487 ft | 144 kts | 88° |
| 2026-05-07 15:35 | 30.34121 | -86.35946 | 7487 ft | 144 kts | 88° |
| 2026-05-07 15:35 | 30.34159 | -86.34787 | 7487 ft | 143 kts | 88° |
| 2026-05-07 15:36 | 30.34197 | -86.33638 | 7487 ft | 144 kts | 88° |
| 2026-05-07 15:36 | 30.34234 | -86.32481 | 7487 ft | 144 kts | 88° |
| 2026-05-07 15:36 | 30.34271 | -86.31322 | 7487 ft | 143 kts | 88° |
| 2026-05-07 15:36 | 30.34308 | -86.30170 | 7488 ft | 144 kts | 88° |
| 2026-05-07 15:37 | 30.34344 | -86.29017 | 7487 ft | 144 kts | 88° |
| 2026-05-07 15:37 | 30.34379 | -86.27851 | 7487 ft | 144 kts | 88° |
| 2026-05-07 15:37 | 30.34403 | -86.27081 | 7487 ft | 144 kts | 88° |
| 2026-05-07 15:37 | 30.34452 | -86.25542 | 7487 ft | 144 kts | 88° |
| 2026-05-07 15:38 | 30.34476 | -86.24770 | 7487 ft | 144 kts | 88° |
| 2026-05-07 15:38 | 30.34525 | -86.23229 | 7487 ft | 144 kts | 88° |
| 2026-05-07 15:38 | 30.34550 | -86.22459 | 7487 ft | 143 kts | 88° |
| 2026-05-07 15:38 | 30.34586 | -86.21302 | 7487 ft | 143 kts | 88° |
| 2026-05-07 15:39 | 30.34622 | -86.20152 | 7487 ft | 144 kts | 88° |
| 2026-05-07 15:39 | 30.34658 | -86.18993 | 7487 ft | 144 kts | 88° |
| 2026-05-07 15:39 | 30.34694 | -86.17845 | 7487 ft | 144 kts | 88° |
| 2026-05-07 15:39 | 30.34729 | -86.16688 | 7487 ft | 143 kts | 88° |
| 2026-05-07 15:40 | 30.34765 | -86.15542 | 7487 ft | 143 kts | 88° |
| 2026-05-07 15:40 | 30.34801 | -86.14379 | 7488 ft | 144 kts | 88° |
| 2026-05-07 15:40 | 30.34835 | -86.13232 | 7487 ft | 144 kts | 88° |
| 2026-05-07 15:40 | 30.34870 | -86.12068 | 7487 ft | 144 kts | 88° |
| 2026-05-07 15:41 | 30.34905 | -86.10922 | 7487 ft | 144 kts | 88° |
| 2026-05-07 15:41 | 30.34939 | -86.09754 | 7487 ft | 144 kts | 88° |
| 2026-05-07 15:41 | 30.34974 | -86.08608 | 7487 ft | 144 kts | 88° |
| 2026-05-07 15:41 | 30.35009 | -86.07446 | 7487 ft | 144 kts | 88° |
| 2026-05-07 15:42 | 30.35044 | -86.06299 | 7487 ft | 144 kts | 88° |
| 2026-05-07 15:42 | 30.35078 | -86.05134 | 7487 ft | 144 kts | 88° |
| 2026-05-07 15:42 | 30.35112 | -86.03982 | 7487 ft | 144 kts | 88° |
| 2026-05-07 15:42 | 30.35146 | -86.02820 | 7487 ft | 144 kts | 88° |
| 2026-05-07 15:43 | 30.35181 | -86.01654 | 7487 ft | 144 kts | 88° |
| 2026-05-07 15:43 | 30.35215 | -86.00506 | 7487 ft | 144 kts | 88° |
| 2026-05-07 15:43 | 30.35249 | -85.99359 | 7487 ft | 144 kts | 88° |
| 2026-05-07 15:43 | 30.35284 | -85.98201 | 7487 ft | 143 kts | 88° |
| 2026-05-07 15:44 | 30.35319 | -85.97044 | 7487 ft | 143 kts | 88° |
| 2026-05-07 15:44 | 30.35353 | -85.95889 | 7488 ft | 144 kts | 88° |
| 2026-05-07 15:44 | 30.35386 | -85.94741 | 7487 ft | 144 kts | 88° |
| 2026-05-07 15:44 | 30.35419 | -85.93579 | 7487 ft | 144 kts | 88° |
| 2026-05-07 15:45 | 30.35452 | -85.92431 | 7487 ft | 143 kts | 88° |
| 2026-05-07 15:45 | 30.35486 | -85.91272 | 7487 ft | 143 kts | 88° |
| 2026-05-07 15:45 | 30.35520 | -85.90124 | 7487 ft | 143 kts | 88° |
| 2026-05-07 15:45 | 30.35553 | -85.88965 | 7487 ft | 143 kts | 88° |
| 2026-05-07 15:46 | 30.35619 | -85.86670 | 7487 ft | 143 kts | 88° |
| 2026-05-07 15:46 | 30.35652 | -85.85511 | 7487 ft | 143 kts | 88° |
| 2026-05-07 15:46 | 30.35685 | -85.84354 | 7487 ft | 143 kts | 88° |
| 2026-05-07 15:47 | 30.35718 | -85.83212 | 7487 ft | 143 kts | 88° |
| 2026-05-07 15:47 | 30.35752 | -85.82057 | 7487 ft | 143 kts | 88° |
| 2026-05-07 15:47 | 30.35784 | -85.80918 | 7487 ft | 143 kts | 88° |
| 2026-05-07 15:47 | 30.35817 | -85.79764 | 7487 ft | 143 kts | 88° |
| 2026-05-07 15:48 | 30.35849 | -85.78626 | 7487 ft | 143 kts | 88° |
| 2026-05-07 15:48 | 30.35881 | -85.77470 | 7487 ft | 143 kts | 88° |
| 2026-05-07 15:48 | 30.35913 | -85.76323 | 7487 ft | 143 kts | 88° |
| 2026-05-07 15:48 | 30.35945 | -85.75181 | 7487 ft | 143 kts | 88° |
| 2026-05-07 15:49 | 30.35977 | -85.74028 | 7487 ft | 143 kts | 88° |
| 2026-05-07 15:49 | 30.36009 | -85.72876 | 7487 ft | 142 kts | 88° |
| 2026-05-07 15:49 | 30.36041 | -85.71739 | 7487 ft | 142 kts | 88° |
| 2026-05-07 15:49 | 30.36073 | -85.70584 | 7487 ft | 142 kts | 88° |
| 2026-05-07 15:50 | 30.36104 | -85.69448 | 7487 ft | 142 kts | 88° |
| 2026-05-07 15:50 | 30.36136 | -85.68313 | 7487 ft | 142 kts | 88° |
| 2026-05-07 15:50 | 30.36168 | -85.67163 | 7487 ft | 142 kts | 88° |
| 2026-05-07 15:50 | 30.36199 | -85.66030 | 7487 ft | 142 kts | 88° |
| 2026-05-07 15:51 | 30.36231 | -85.64885 | 7487 ft | 142 kts | 88° |
| 2026-05-07 15:51 | 30.36262 | -85.63752 | 7487 ft | 142 kts | 88° |
| 2026-05-07 15:51 | 30.36293 | -85.62605 | 7487 ft | 142 kts | 88° |
| 2026-05-07 15:51 | 30.36323 | -85.61471 | 7487 ft | 142 kts | 88° |
| 2026-05-07 15:52 | 30.36353 | -85.60322 | 7487 ft | 142 kts | 88° |
| 2026-05-07 15:52 | 30.36383 | -85.59191 | 7487 ft | 142 kts | 88° |
| 2026-05-07 15:52 | 30.36413 | -85.58048 | 7487 ft | 142 kts | 88° |
| 2026-05-07 15:52 | 30.36443 | -85.56899 | 7487 ft | 142 kts | 88° |
| 2026-05-07 15:53 | 30.36473 | -85.55763 | 7487 ft | 142 kts | 88° |
| 2026-05-07 15:53 | 30.36503 | -85.54616 | 7487 ft | 142 kts | 88° |
| 2026-05-07 15:53 | 30.36533 | -85.53490 | 7487 ft | 141 kts | 88° |
| 2026-05-07 15:53 | 30.36563 | -85.52344 | 7487 ft | 141 kts | 88° |
| 2026-05-07 15:54 | 30.36594 | -85.51214 | 7487 ft | 141 kts | 88° |
| 2026-05-07 15:54 | 30.36625 | -85.50079 | 7487 ft | 140 kts | 88° |
| 2026-05-07 15:54 | 30.36656 | -85.48959 | 7487 ft | 140 kts | 88° |
| 2026-05-07 15:54 | 30.36686 | -85.47822 | 7487 ft | 140 kts | 88° |
| 2026-05-07 15:55 | 30.36716 | -85.46703 | 7487 ft | 140 kts | 88° |
| 2026-05-07 15:55 | 30.36745 | -85.45575 | 7487 ft | 141 kts | 88° |
| 2026-05-07 15:55 | 30.36773 | -85.44444 | 7488 ft | 141 kts | 88° |
| 2026-05-07 15:55 | 30.36801 | -85.43301 | 7487 ft | 141 kts | 88° |
| 2026-05-07 15:56 | 30.36828 | -85.42175 | 7487 ft | 141 kts | 88° |
| 2026-05-07 15:56 | 30.36856 | -85.41031 | 7487 ft | 141 kts | 88° |
| 2026-05-07 15:56 | 30.36883 | -85.39902 | 7487 ft | 141 kts | 88° |
| 2026-05-07 15:56 | 30.36911 | -85.38754 | 7487 ft | 142 kts | 88° |
| 2026-05-07 15:57 | 30.36938 | -85.37617 | 7487 ft | 142 kts | 88° |
| 2026-05-07 15:57 | 30.36965 | -85.36467 | 7487 ft | 142 kts | 88° |
| 2026-05-07 15:57 | 30.36991 | -85.35328 | 7487 ft | 142 kts | 88° |
| 2026-05-07 15:57 | 30.37019 | -85.34193 | 7487 ft | 142 kts | 88° |
| 2026-05-07 15:58 | 30.37047 | -85.33046 | 7487 ft | 142 kts | 88° |
| 2026-05-07 15:58 | 30.37075 | -85.31892 | 7487 ft | 142 kts | 88° |
| 2026-05-07 15:58 | 30.37102 | -85.30752 | 7487 ft | 142 kts | 88° |
| 2026-05-07 15:58 | 30.37129 | -85.29613 | 7487 ft | 142 kts | 88° |
| 2026-05-07 15:59 | 30.37157 | -85.28464 | 7487 ft | 142 kts | 88° |
| 2026-05-07 15:59 | 30.37186 | -85.27317 | 7487 ft | 142 kts | 88° |
| 2026-05-07 15:59 | 30.37214 | -85.26186 | 7487 ft | 142 kts | 88° |
| 2026-05-07 15:59 | 30.37242 | -85.25050 | 7487 ft | 142 kts | 88° |
| 2026-05-07 16:00 | 30.37269 | -85.23902 | 7487 ft | 142 kts | 88° |
| 2026-05-07 16:00 | 30.37296 | -85.22765 | 7487 ft | 142 kts | 88° |
| 2026-05-07 16:00 | 30.37323 | -85.21617 | 7487 ft | 141 kts | 88° |
| 2026-05-07 16:00 | 30.37351 | -85.20487 | 7487 ft | 141 kts | 88° |
| 2026-05-07 16:01 | 30.37379 | -85.19358 | 7487 ft | 141 kts | 88° |
| 2026-05-07 16:01 | 30.37407 | -85.18220 | 7487 ft | 141 kts | 88° |
| 2026-05-07 16:01 | 30.37434 | -85.17077 | 7487 ft | 141 kts | 88° |
| 2026-05-07 16:01 | 30.37430 | -85.15934 | 7485 ft | 141 kts | 97° |
| 2026-05-07 16:02 | 30.37232 | -85.14839 | 7433 ft | 140 kts | 104° |
| 2026-05-07 16:02 | 30.36984 | -85.13745 | 7382 ft | 140 kts | 105° |
| 2026-05-07 16:02 | 30.36735 | -85.12664 | 7333 ft | 140 kts | 105° |
| 2026-05-07 16:02 | 30.36481 | -85.11564 | 7283 ft | 141 kts | 105° |
| 2026-05-07 16:03 | 30.36227 | -85.10466 | 7234 ft | 141 kts | 105° |
| 2026-05-07 16:03 | 30.35975 | -85.09380 | 7184 ft | 141 kts | 105° |
| 2026-05-07 16:03 | 30.35719 | -85.08280 | 7135 ft | 142 kts | 105° |
| 2026-05-07 16:03 | 30.35462 | -85.07175 | 7085 ft | 142 kts | 105° |
| 2026-05-07 16:04 | 30.35203 | -85.06067 | 7036 ft | 142 kts | 105° |
| 2026-05-07 16:04 | 30.34944 | -85.04958 | 6986 ft | 143 kts | 105° |
| 2026-05-07 16:04 | 30.34685 | -85.03848 | 6936 ft | 143 kts | 105° |
| 2026-05-07 16:04 | 30.34425 | -85.02741 | 6886 ft | 142 kts | 105° |
| 2026-05-07 16:05 | 30.34166 | -85.01635 | 6836 ft | 143 kts | 105° |
| 2026-05-07 16:05 | 30.33906 | -85.00528 | 6786 ft | 142 kts | 105° |
| 2026-05-07 16:05 | 30.33646 | -84.99423 | 6735 ft | 142 kts | 105° |
| 2026-05-07 16:05 | 30.33387 | -84.98323 | 6685 ft | 142 kts | 105° |
| 2026-05-07 16:06 | 30.33127 | -84.97225 | 6635 ft | 141 kts | 105° |
| 2026-05-07 16:06 | 30.32868 | -84.96128 | 6584 ft | 141 kts | 105° |
| 2026-05-07 16:06 | 30.32611 | -84.95045 | 6535 ft | 141 kts | 105° |
| 2026-05-07 16:06 | 30.32351 | -84.93948 | 6485 ft | 141 kts | 105° |
| 2026-05-07 16:07 | 30.32090 | -84.92848 | 6435 ft | 141 kts | 105° |
| 2026-05-07 16:07 | 30.31826 | -84.91740 | 6373 ft | 143 kts | 105° |
| 2026-05-07 16:07 | 30.31561 | -84.90630 | 6277 ft | 145 kts | 105° |
| 2026-05-07 16:07 | 30.31289 | -84.89490 | 6178 ft | 147 kts | 105° |
| 2026-05-07 16:08 | 30.31016 | -84.88346 | 6080 ft | 148 kts | 105° |
| 2026-05-07 16:08 | 30.30739 | -84.87191 | 5980 ft | 149 kts | 105° |
| 2026-05-07 16:08 | 30.30465 | -84.86050 | 5882 ft | 149 kts | 105° |
| 2026-05-07 16:08 | 30.30188 | -84.84895 | 5782 ft | 149 kts | 105° |
| 2026-05-07 16:09 | 30.29911 | -84.83743 | 5682 ft | 149 kts | 105° |
| 2026-05-07 16:09 | 30.29633 | -84.82591 | 5581 ft | 148 kts | 105° |
| 2026-05-07 16:09 | 30.29355 | -84.81441 | 5481 ft | 148 kts | 105° |
| 2026-05-07 16:09 | 30.29078 | -84.80292 | 5381 ft | 148 kts | 105° |
| 2026-05-07 16:10 | 30.28799 | -84.79143 | 5281 ft | 148 kts | 105° |
| 2026-05-07 16:10 | 30.28521 | -84.77994 | 5181 ft | 148 kts | 105° |
| 2026-05-07 16:10 | 30.28241 | -84.76844 | 5081 ft | 148 kts | 105° |
| 2026-05-07 16:10 | 30.27967 | -84.75717 | 5006 ft | 147 kts | 105° |
| 2026-05-07 16:11 | 30.27688 | -84.74571 | 4894 ft | 148 kts | 105° |
| 2026-05-07 16:11 | 30.27406 | -84.73413 | 4743 ft | 150 kts | 105° |
| 2026-05-07 16:11 | 30.27119 | -84.72242 | 4591 ft | 152 kts | 105° |
| 2026-05-07 16:11 | 30.26831 | -84.71063 | 4438 ft | 153 kts | 105° |
| 2026-05-07 16:12 | 30.26541 | -84.69879 | 4285 ft | 153 kts | 106° |
| 2026-05-07 16:12 | 30.26250 | -84.68693 | 4132 ft | 153 kts | 106° |
| 2026-05-07 16:12 | 30.25961 | -84.67520 | 3980 ft | 153 kts | 106° |
| 2026-05-07 16:12 | 30.25669 | -84.66335 | 3826 ft | 153 kts | 106° |
| 2026-05-07 16:13 | 30.25376 | -84.65147 | 3668 ft | 154 kts | 106° |
| 2026-05-07 16:13 | 30.25084 | -84.63965 | 3540 ft | 151 kts | 106° |
| 2026-05-07 16:13 | 30.24800 | -84.62815 | 3491 ft | 145 kts | 106° |
| 2026-05-07 16:13 | 30.24528 | -84.61718 | 3482 ft | 139 kts | 106° |
| 2026-05-07 16:14 | 30.24263 | -84.60650 | 3485 ft | 138 kts | 106° |
| 2026-05-07 16:14 | 30.23993 | -84.59565 | 3491 ft | 144 kts | 106° |
| 2026-05-07 16:14 | 30.23711 | -84.58431 | 3491 ft | 148 kts | 106° |
| 2026-05-07 16:14 | 30.23422 | -84.57273 | 3490 ft | 151 kts | 106° |
| 2026-05-07 16:15 | 30.23131 | -84.56105 | 3489 ft | 152 kts | 106° |
| 2026-05-07 16:15 | 30.22819 | -84.54956 | 3487 ft | 151 kts | 109° |
| 2026-05-07 16:15 | 30.22512 | -84.53793 | 3487 ft | 150 kts | 105° |
| 2026-05-07 16:15 | 30.22237 | -84.52635 | 3487 ft | 150 kts | 105° |
| 2026-05-07 16:16 | 30.21962 | -84.51470 | 3487 ft | 150 kts | 105° |
| 2026-05-07 16:16 | 30.21687 | -84.50290 | 3395 ft | 155 kts | 104° |
| 2026-05-07 16:16 | 30.21535 | -84.49033 | 3229 ft | 162 kts | 95° |
| 2026-05-07 16:16 | 30.21457 | -84.47717 | 3085 ft | 165 kts | 93° |
| 2026-05-07 16:17 | 30.21390 | -84.46396 | 3016 ft | 163 kts | 93° |
| 2026-05-07 16:17 | 30.21326 | -84.45107 | 3000 ft | 159 kts | 93° |
| 2026-05-07 16:17 | 30.21263 | -84.43848 | 2998 ft | 155 kts | 93° |
| 2026-05-07 16:17 | 30.21201 | -84.42626 | 2998 ft | 152 kts | 93° |
| 2026-05-07 16:18 | 30.21139 | -84.41408 | 2999 ft | 151 kts | 93° |
| 2026-05-07 16:18 | 30.21077 | -84.40201 | 2999 ft | 150 kts | 93° |
| 2026-05-07 16:18 | 30.21015 | -84.38996 | 2999 ft | 149 kts | 93° |
| 2026-05-07 16:18 | 30.20952 | -84.37788 | 3000 ft | 149 kts | 93° |
| 2026-05-07 16:19 | 30.21066 | -84.36619 | 2992 ft | 149 kts | 65° |
| 2026-05-07 16:19 | 30.21790 | -84.35786 | 3008 ft | 148 kts | 32° |
| 2026-05-07 16:19 | 30.22727 | -84.35320 | 3003 ft | 148 kts | 16° |
| 2026-05-07 16:19 | 30.23738 | -84.35121 | 3000 ft | 145 kts | 4° |
| 2026-05-07 16:20 | 30.24732 | -84.35148 | 3002 ft | 143 kts | 354° |
| 2026-05-07 16:20 | 30.25730 | -84.35318 | 2928 ft | 147 kts | 349° |
| 2026-05-07 16:20 | 30.26735 | -84.35541 | 2787 ft | 149 kts | 349° |
| 2026-05-07 16:20 | 30.27785 | -84.35741 | 2560 ft | 154 kts | 352° |
| 2026-05-07 16:21 | 30.28861 | -84.35862 | 2290 ft | 159 kts | 356° |
| 2026-05-07 16:21 | 30.29985 | -84.35891 | 2011 ft | 162 kts | 0° |
| 2026-05-07 16:21 | 30.31091 | -84.35860 | 1755 ft | 156 kts | 2° |
| 2026-05-07 16:21 | 30.32114 | -84.35820 | 1605 ft | 134 kts | 1° |
| 2026-05-07 16:22 | 30.33021 | -84.35804 | 1415 ft | 128 kts | 0° |
| 2026-05-07 16:22 | 30.33908 | -84.35809 | 1217 ft | 126 kts | 359° |
| 2026-05-07 16:22 | 30.34777 | -84.35823 | 1037 ft | 125 kts | 359° |
| 2026-05-07 16:22 | 30.35631 | -84.35829 | 878 ft | 122 kts | 0° |
| 2026-05-07 16:23 | 30.36483 | -84.35826 | 717 ft | 121 kts | 359° |
| 2026-05-07 16:23 | 30.37311 | -84.35853 | 589 ft | 119 kts | 358° |
| 2026-05-07 16:23 | 30.38146 | -84.35877 | 418 ft | 120 kts | 359° |
| 2026-05-07 16:23 | 30.38980 | -84.35877 | 237 ft | 121 kts | 0° |
| 2026-05-07 16:24 | 30.39794 | -84.35886 | 101 ft | 110 kts | 358° |
| 2026-05-07 16:24 | 30.40439 | -84.35908 | 85 ft | 76 kts | 359° |
| 2026-05-07 16:24 | 30.40839 | -84.35911 | 85 ft | 40 kts | 1° |
| 2026-05-07 16:24 | 30.41006 | -84.35900 | 85 ft | 17 kts | 359° |
| 2026-05-07 16:25 | 30.41103 | -84.35898 | 85 ft | 13 kts | 7° |
| 2026-05-07 16:25 | 30.41149 | -84.35825 | 85 ft | 12 kts | 85° |
| 2026-05-07 16:25 | 30.41128 | -84.35747 | 85 ft | 9 kts | 162° |
| 2026-05-07 16:25 | 30.41064 | -84.35745 | 85 ft | 10 kts | 180° |
| 2026-05-07 16:26 | 30.40982 | -84.35745 | 85 ft | 13 kts | 180° |
| 2026-05-07 16:26 | 30.40880 | -84.35742 | 85 ft | 16 kts | 180° |
| 2026-05-07 16:26 | 30.40764 | -84.35742 | 85 ft | 17 kts | 179° |
| 2026-05-07 16:26 | 30.40684 | -84.35742 | 85 ft | 18 kts | 179° |
| 2026-05-07 16:27 | 30.40521 | -84.35740 | 85 ft | 18 kts | 179° |
| 2026-05-07 16:27 | 30.40417 | -84.35689 | 85 ft | 15 kts | 133° |
| 2026-05-07 16:27 | 30.40375 | -84.35624 | 85 ft | 7 kts | 98° |
| 2026-05-07 16:27 | 30.40372 | -84.35582 | 85 ft | 0 kts | 95° |